Time;durP1;ratioP1;P1;durP2;ratioP2;P2;SDS_P1;SDS_P2;PMS_P1;PMS_P2;Temp;Humidity;BMP_temperature;BMP_pressure;BME280_temperature;BME280_humidity;BME280_pressure;Samples;Min_cycle;Max_cycle;Signal;HPM_P1;HPM_P2
2023/01/25 00:02:25;;;;;;;;;;;;;;;;;;5049138;28;19913;-55
2023/01/25 00:04:51;;;;;;;;;;;;;;;;;;5054086;28;19967;-52
2023/01/25 00:07:17;;;;;;;;;;;;;;;;;;5055334;28;20358;-52
2023/01/25 00:09:43;;;;;;;;;;;;;;;;;;5064390;28;19951;-52
2023/01/25 00:12:09;;;;;;;;;;;;;;;;;;5070992;28;19955;-55
2023/01/25 00:14:34;;;;;;;;;;;;;;;;;;5071080;28;20020;-52
2023/01/25 00:17:00;;;;;;;;;;;;;;;;;;5055143;28;20254;-53
2023/01/25 00:19:26;;;;;;;;;;;;;;;;;;5054233;28;19913;-53
2023/01/25 00:21:52;;;;;;;;;;;;;;;;;;5069727;28;19913;-53
2023/01/25 00:24:21;;;;;;;;;;;;;;;;;;5054359;28;20423;-52
2023/01/25 00:26:47;;;;;;;;;;;;;;;;;;5061000;28;19931;-53
2023/01/25 00:29:13;;;;;;;;;;;;;;;;;;5053832;28;19913;-52
2023/01/25 00:31:39;;;;;;;;;;;;;;;;;;5061893;28;19917;-52
2023/01/25 00:34:05;;;;;;;;;;;;;;;;;;5056783;28;19916;-53
2023/01/25 00:36:32;;;;;;;;;;;;;;;;;;5072492;28;19913;-52
2023/01/25 00:38:58;;;;;;;;;;;;;;;;;;5073075;28;19912;-54
2023/01/25 00:41:24;;;;;;;;;;;;;;;;;;5073479;28;19920;-55
2023/01/25 00:43:50;;;;;;;;;;;;;;;;;;5072057;28;20418;-52
2023/01/25 00:46:16;;;;;;;;;;;;;;;;;;5042403;28;20010;-52
2023/01/25 00:48:41;;;;;;;;;;;;;;;;;;5072850;28;19916;-52
2023/01/25 00:51:07;;;;;;;;;;;;;;;;;;5073356;28;19923;-54
2023/01/25 00:53:33;;;;;;;;;;;;;;;;;;5060982;28;19912;-54
2023/01/25 00:55:59;;;;;;;;;;;;;;;;;;5053493;28;19909;-52
2023/01/25 00:58:25;;;;;;;;;;;;;;;;;;5054406;28;19984;-55
2023/01/25 01:00:51;;;;;;;;;;;;;;;;;;5063522;28;19917;-53
2023/01/25 01:03:17;;;;;;;;;;;;;;;;;;5062590;28;19916;-53
2023/01/25 01:05:43;;;;;;;;;;;;;;;;;;5073071;28;19912;-52
2023/01/25 01:08:09;;;;;;;;;;;;;;;;;;5072089;28;19913;-52
2023/01/25 01:10:35;;;;;;;;;;;;;;;;;;5061891;28;19917;-52
2023/01/25 01:13:00;;;;;;;;;;;;;;;;;;5059885;28;19913;-53
2023/01/25 01:15:26;;;;;;;;;;;;;;;;;;5071681;28;19908;-54
2023/01/25 01:17:52;;;;;;;;;;;;;;;;;;5055890;28;19936;-55
2023/01/25 01:20:18;;;;;;;;;;;;;;;;;;5053892;28;19920;-52
2023/01/25 01:22:44;;;;;;;;;;;;;;;;;;5057284;28;19913;-53
2023/01/25 01:25:12;;;;;;;;;;;;;;;;;;5072754;28;19913;-52
2023/01/25 01:27:38;;;;;;;;;;;;;;;;;;5072107;28;20372;-54
2023/01/25 01:30:03;;;;;;;;;;;;;;;;;;5070533;28;19923;-52
2023/01/25 01:32:29;;;;;;;;;;;;;;;;;;5061499;28;20159;-52
2023/01/25 01:34:55;;;;;;;;;;;;;;;;;;5072386;28;19912;-53
2023/01/25 01:37:21;;;;;;;;;;;;;;;;;;5072179;28;19919;-53
2023/01/25 01:39:47;;;;;;;;;;;;;;;;;;5072100;28;19923;-55
2023/01/25 01:42:13;;;;;;;;;;;;;;;;;;5070768;28;20325;-52
2023/01/25 01:44:39;;;;;;;;;;;;;;;;;;5053782;28;19995;-55
2023/01/25 01:47:05;;;;;;;;;;;;;;;;;;5060967;28;19960;-52
2023/01/25 01:49:31;;;;;;;;;;;;;;;;;;5072027;28;20217;-52
2023/01/25 01:51:57;;;;;;;;;;;;;;;;;;5058667;28;19991;-52
2023/01/25 01:54:24;;;;;;;;;;;;;;;;;;5069116;28;19919;-52
2023/01/25 01:56:53;;;;;;;;;;;;;;;;;;5072275;28;19915;-52
2023/01/25 01:59:19;;;;;;;;;;;;;;;;;;5071917;28;20376;-52
2023/01/25 02:01:44;;;;;;;;;;;;;;;;;;5062530;28;19913;-52
2023/01/25 02:04:10;;;;;;;;;;;;;;;;;;5067410;28;19913;-52
2023/01/25 02:06:36;;;;;;;;;;;;;;;;;;5060444;28;19913;-52
2023/01/25 02:09:02;;;;;;;;;;;;;;;;;;5064843;28;20285;-52
2023/01/25 02:11:28;;;;;;;;;;;;;;;;;;5054610;28;19916;-52
2023/01/25 02:13:54;;;;;;;;;;;;;;;;;;5064253;28;19920;-54
2023/01/25 02:16:20;;;;;;;;;;;;;;;;;;5068246;28;19919;-53
2023/01/25 02:18:46;;;;;;;;;;;;;;;;;;5052887;28;19913;-54
2023/01/25 02:21:12;;;;;;;;;;;;;;;;;;5045427;28;19967;-52
2023/01/25 02:23:39;;;;;;;;;;;;;;;;;;5034121;28;19917;-55
2023/01/25 02:26:05;;;;;;;;;;;;;;;;;;5051928;28;19948;-52
2023/01/25 02:28:31;;;;;;;;;;;;;;;;;;5050345;28;19959;-53
2023/01/25 02:30:57;;;;;;;;;;;;;;;;;;5051837;28;19966;-52
2023/01/25 02:33:23;;;;;;;;;;;;;;;;;;5051944;28;20293;-52
2023/01/25 02:35:52;;;;;;;;;;;;;;;;;;5051859;28;19956;-52
2023/01/25 02:38:19;;;;;;;;;;;;;;;;;;5051788;28;19909;-54
2023/01/25 02:40:45;;;;;;;;;;;;;;;;;;5052050;28;20365;-52
2023/01/25 02:43:11;;;;;;;;;;;;;;;;;;5051805;28;20336;-52
2023/01/25 02:45:36;;;;;;;;;;;;;;;;;;5051738;28;19948;-52
2023/01/25 02:48:03;;;;;;;;;;;;;;;;;;5051480;28;20368;-52
2023/01/25 02:50:28;;;;;;;;;;;;;;;;;;5052702;28;19913;-53
2023/01/25 02:52:54;;;;;;;;;;;;;;;;;;5051826;28;20349;-52
2023/01/25 02:55:20;;;;;;;;;;;;;;;;;;5065042;28;19912;-55
2023/01/25 02:57:46;;;;;;;;;;;;;;;;;;5033878;28;19909;-55
2023/01/25 03:00:12;;;;;;;;;;;;;;;;;;5057767;28;20000;-52
2023/01/25 03:02:38;;;;;;;;;;;;;;;;;;5073829;28;20421;-52
2023/01/25 03:05:04;;;;;;;;;;;;;;;;;;5062771;28;20426;-54
2023/01/25 03:07:30;;;;;;;;;;;;;;;;;;5055809;28;20389;-55
2023/01/25 03:09:56;;;;;;;;;;;;;;;;;;5042506;28;19912;-53
2023/01/25 03:12:22;;;;;;;;;;;;;;;;;;5056462;28;19913;-52
2023/01/25 03:14:47;;;;;;;;;;;;;;;;;;5063843;28;19924;-52
2023/01/25 03:17:13;;;;;;;;;;;;;;;;;;5055535;28;20342;-54
2023/01/25 03:19:39;;;;;;;;;;;;;;;;;;5055505;28;19967;-53
2023/01/25 03:22:05;;;;;;;;;;;;;;;;;;5066233;28;20376;-52
2023/01/25 03:24:31;;;;;;;;;;;;;;;;;;5072404;28;20010;-54
2023/01/25 03:27:09;;;;;;;;;;;;;;;;;;5054998;28;19980;-54
2023/01/25 03:29:35;;;;;;;;;;;;;;;;;;5062466;28;20335;-55
2023/01/25 03:32:01;;;;;;;;;;;;;;;;;;5059370;28;19917;-55
2023/01/25 03:34:27;;;;;;;;;;;;;;;;;;5054966;28;19909;-52
2023/01/25 03:36:53;;;;;;;;;;;;;;;;;;5054951;28;19931;-52
2023/01/25 03:39:18;;;;;;;;;;;;;;;;;;5054980;28;19915;-52
2023/01/25 03:41:44;;;;;;;;;;;;;;;;;;5054872;28;19909;-52
2023/01/25 03:44:10;;;;;;;;;;;;;;;;;;5054740;28;19909;-52
2023/01/25 03:46:36;;;;;;;;;;;;;;;;;;5054640;28;20289;-52
2023/01/25 03:49:02;;;;;;;;;;;;;;;;;;5054425;28;19924;-52
2023/01/25 03:51:28;;;;;;;;;;;;;;;;;;5054406;28;19963;-52
2023/01/25 03:53:54;;;;;;;;;;;;;;;;;;5048932;28;19913;-52
2023/01/25 03:56:20;;;;;;;;;;;;;;;;;;5066900;28;19968;-52
2023/01/25 03:58:46;;;;;;;;;;;;;;;;;;5074259;28;20003;-53
2023/01/25 04:01:11;;;;;;;;;;;;;;;;;;5063525;28;19942;-54
2023/01/25 04:03:37;;;;;;;;;;;;;;;;;;5055543;28;20440;-54
2023/01/25 04:06:03;;;;;;;;;;;;;;;;;;5073632;28;20023;-53
2023/01/25 04:08:29;;;;;;;;;;;;;;;;;;5058644;28;20224;-52
2023/01/25 04:10:55;;;;;;;;;;;;;;;;;;5052780;28;20011;-52
2023/01/25 04:13:21;;;;;;;;;;;;;;;;;;5071168;28;20347;-52
2023/01/25 04:15:47;;;;;;;;;;;;;;;;;;5055672;28;19960;-52
2023/01/25 04:18:13;;;;;;;;;;;;;;;;;;5053925;28;19999;-52
2023/01/25 04:20:39;;;;;;;;;;;;;;;;;;5054153;28;19944;-52
2023/01/25 04:23:05;;;;;;;;;;;;;;;;;;5053585;28;19912;-52
2023/01/25 04:25:31;;;;;;;;;;;;;;;;;;5061713;28;19927;-52
2023/01/25 04:27:57;;;;;;;;;;;;;;;;;;5073577;28;19916;-52
2023/01/25 04:30:23;;;;;;;;;;;;;;;;;;5073799;28;19912;-52
2023/01/25 04:32:49;;;;;;;;;;;;;;;;;;5073960;28;20327;-52
2023/01/25 04:35:15;;;;;;;;;;;;;;;;;;5060807;28;19912;-55
2023/01/25 04:37:41;;;;;;;;;;;;;;;;;;5073874;28;20300;-52
2023/01/25 04:40:07;;;;;;;;;;;;;;;;;;5065014;28;20345;-54
2023/01/25 04:42:33;;;;;;;;;;;;;;;;;;5053725;28;19970;-54
2023/01/25 04:44:59;;;;;;;;;;;;;;;;;;5057195;28;20369;-52
2023/01/25 04:47:25;;;;;;;;;;;;;;;;;;5110776;22;19925;-56
2023/01/25 04:49:51;;;;;;;;;;;;;;;;;;5061003;28;19970;-57
2023/01/25 04:52:17;;;;;;;;;;;;;;;;;;5053339;28;19963;-60
2023/01/25 04:54:42;;;;;;;;;;;;;;;;;;5053404;28;20334;-59
2023/01/25 04:57:08;;;;;;;;;;;;;;;;;;5051722;28;19913;-60
2023/01/25 04:59:34;;;;;;;;;;;;;;;;;;5053218;28;19920;-57
2023/01/25 05:02:00;;;;;;;;;;;;;;;;;;5053110;28;19913;-56
2023/01/25 05:04:26;;;;;;;;;;;;;;;;;;5053358;28;20387;-55
2023/01/25 05:06:52;;;;;;;;;;;;;;;;;;5053128;28;20329;-55
2023/01/25 05:09:18;;;;;;;;;;;;;;;;;;5052989;28;19917;-53
2023/01/25 05:11:44;;;;;;;;;;;;;;;;;;5052982;28;19912;-56
2023/01/25 05:14:10;;;;;;;;;;;;;;;;;;5053067;28;19935;-55
2023/01/25 05:16:36;;;;;;;;;;;;;;;;;;5053250;28;19955;-57
2023/01/25 05:19:02;;;;;;;;;;;;;;;;;;5052995;28;19955;-57
2023/01/25 05:24:12;;;;;;;;;;;;;;;;;;5052916;28;19951;-55
2023/01/25 05:29:23;;;;;;;;;;;;;;;;;;5052740;28;19915;-56
2023/01/25 05:31:49;;;;;;;;;;;;;;;;;;5052678;28;19913;-55
2023/01/25 05:34:14;;;;;;;;;;;;;;;;;;5052733;28;20342;-56
2023/01/25 05:36:40;;;;;;;;;;;;;;;;;;5052707;28;20369;-57
2023/01/25 05:39:07;;;;;;;;;;;;;;;;;;5052260;28;19909;-56
2023/01/25 05:41:33;;;;;;;;;;;;;;;;;;5052764;28;19908;-54
2023/01/25 05:43:59;;;;;;;;;;;;;;;;;;5052599;28;20480;-53
2023/01/25 05:46:25;;;;;;;;;;;;;;;;;;5052627;28;19909;-53
2023/01/25 05:48:51;;;;;;;;;;;;;;;;;;5052130;28;19921;-56
2023/01/25 05:51:17;;;;;;;;;;;;;;;;;;5052251;28;20365;-55
2023/01/25 05:53:42;;;;;;;;;;;;;;;;;;5052414;28;19909;-54
2023/01/25 05:56:11;;;;;;;;;;;;;;;;;;5052368;28;19944;-52
2023/01/25 05:58:37;;;;;;;;;;;;;;;;;;5052132;28;20099;-55
2023/01/25 06:01:03;;;;;;;;;;;;;;;;;;5052117;28;19905;-53
2023/01/25 06:03:29;;;;;;;;;;;;;;;;;;5052251;28;19909;-55
2023/01/25 06:05:55;;;;;;;;;;;;;;;;;;5052071;28;20382;-55
2023/01/25 06:08:21;;;;;;;;;;;;;;;;;;5051938;28;19908;-56
2023/01/25 06:10:47;;;;;;;;;;;;;;;;;;5052032;28;19913;-56
2023/01/25 06:13:13;;;;;;;;;;;;;;;;;;5052036;28;19940;-56
2023/01/25 06:15:39;;;;;;;;;;;;;;;;;;5052030;28;19909;-55
2023/01/25 06:18:05;;;;;;;;;;;;;;;;;;5051894;28;19908;-55
2023/01/25 06:20:30;;;;;;;;;;;;;;;;;;5050657;28;19916;-56
2023/01/25 06:22:56;;;;;;;;;;;;;;;;;;5050732;28;20392;-57
2023/01/25 06:25:22;;;;;;;;;;;;;;;;;;5051991;28;19909;-56
2023/01/25 06:27:48;;;;;;;;;;;;;;;;;;5051915;28;19917;-56
2023/01/25 06:30:14;;;;;;;;;;;;;;;;;;5051602;28;20343;-56
2023/01/25 06:32:40;;;;;;;;;;;;;;;;;;5051909;28;19931;-55
2023/01/25 06:35:06;;;;;;;;;;;;;;;;;;5053931;28;19916;-53
2023/01/25 06:37:32;;;;;;;;;;;;;;;;;;5056553;28;19913;-54
2023/01/25 06:39:58;;;;;;;;;;;;;;;;;;5054847;28;19913;-53
2023/01/25 06:42:23;;;;;;;;;;;;;;;;;;5056008;28;19909;-57
2023/01/25 06:44:49;;;;;;;;;;;;;;;;;;5055845;28;19913;-55
2023/01/25 06:47:15;;;;;;;;;;;;;;;;;;5055739;28;19909;-56
2023/01/25 06:49:41;;;;;;;;;;;;;;;;;;5055613;28;20357;-55
2023/01/25 06:52:07;;;;;;;;;;;;;;;;;;5056179;28;19966;-56
2023/01/25 06:54:33;;;;;;;;;;;;;;;;;;5055980;28;20369;-56
2023/01/25 06:56:59;;;;;;;;;;;;;;;;;;5055781;28;20331;-56
2023/01/25 06:59:25;;;;;;;;;;;;;;;;;;5055414;28;19997;-59
2023/01/25 07:01:51;;;;;;;;;;;;;;;;;;5054350;28;20008;-57
2023/01/25 07:04:17;;;;;;;;;;;;;;;;;;5054314;28;20390;-56
2023/01/25 07:06:43;;;;;;;;;;;;;;;;;;5055760;28;19909;-58
2023/01/25 07:09:09;;;;;;;;;;;;;;;;;;5055193;28;19909;-57
2023/01/25 07:11:35;;;;;;;;;;;;;;;;;;5055404;28;19913;-56
2023/01/25 07:14:00;;;;;;;;;;;;;;;;;;5055322;28;19909;-53
2023/01/25 07:16:26;;;;;;;;;;;;;;;;;;5055371;28;19909;-54
2023/01/25 07:18:52;;;;;;;;;;;;;;;;;;5055026;28;19908;-53
2023/01/25 07:21:21;;;;;;;;;;;;;;;;;;5055545;28;19916;-55
2023/01/25 07:23:47;;;;;;;;;;;;;;;;;;5055152;28;19916;-59
2023/01/25 07:26:13;;;;;;;;;;;;;;;;;;5055200;28;19909;-56
2023/01/25 07:28:39;;;;;;;;;;;;;;;;;;5054786;28;19908;-54
2023/01/25 07:31:05;;;;;;;;;;;;;;;;;;5054818;28;20270;-56
2023/01/25 07:33:31;;;;;;;;;;;;;;;;;;5054973;28;19916;-53
2023/01/25 07:35:57;;;;;;;;;;;;;;;;;;5055084;28;20310;-58
2023/01/25 07:38:23;;;;;;;;;;;;;;;;;;5054766;28;20040;-55
2023/01/25 07:40:49;;;;;;;;;;;;;;;;;;5054926;28;20146;-56
2023/01/25 07:43:15;;;;;;;;;;;;;;;;;;5054822;28;19909;-52
2023/01/25 07:45:44;;;;;;;;;;;;;;;;;;5053056;28;19909;-54
2023/01/25 07:48:10;;;;;;;;;;;;;;;;;;5054445;28;19948;-54
2023/01/25 07:50:36;;;;;;;;;;;;;;;;;;5054885;28;20380;-51
2023/01/25 07:53:02;;;;;;;;;;;;;;;;;;5054656;28;19908;-52
2023/01/25 07:55:27;;;;;;;;;;;;;;;;;;5054651;28;20370;-49
2023/01/25 07:57:54;;;;;;;;;;;;;;;;;;5054512;28;20149;-50
2023/01/25 08:00:20;;;;;;;;;;;;;;;;;;5053153;28;19909;-49
2023/01/25 08:02:46;;;;;;;;;;;;;;;;;;5054378;28;19912;-49
2023/01/25 08:05:12;;;;;;;;;;;;;;;;;;5054425;28;19909;-61
2023/01/25 08:07:38;;;;;;;;;;;;;;;;;;5052961;28;19913;-56
2023/01/25 08:10:05;;;;;;;;;;;;;;;;;;5054016;28;20289;-54
2023/01/25 08:12:33;;;;;;;;;;;;;;;;;;5054387;28;19909;-52
2023/01/25 08:14:59;;;;;;;;;;;;;;;;;;5054214;28;19958;-54
2023/01/25 08:17:30;;;;;;;;;;;;;;;;;;5054113;28;19912;-55
2023/01/25 08:19:56;;;;;;;;;;;;;;;;;;5054266;28;20361;-57
2023/01/25 08:22:22;;;;;;;;;;;;;;;;;;5052934;28;19959;-56
2023/01/25 08:24:48;;;;;;;;;;;;;;;;;;5054054;28;19995;-55
2023/01/25 08:27:14;;;;;;;;;;;;;;;;;;5052634;28;19908;-55
2023/01/25 08:29:40;;;;;;;;;;;;;;;;;;5053692;28;19916;-57
2023/01/25 08:32:06;;;;;;;;;;;;;;;;;;5052644;28;20373;-54
2023/01/25 08:34:32;;;;;;;;;;;;;;;;;;5053954;28;20311;-58
2023/01/25 08:36:58;;;;;;;;;;;;;;;;;;5053945;28;19919;-57
2023/01/25 08:39:24;;;;;;;;;;;;;;;;;;5052371;28;20427;-52
2023/01/25 08:41:50;;;;;;;;;;;;;;;;;;5053789;28;19935;-54
2023/01/25 08:44:16;;;;;;;;;;;;;;;;;;5053662;28;19909;-52
2023/01/25 08:46:42;;;;;;;;;;;;;;;;;;5053670;28;19909;-54
2023/01/25 08:49:09;;;;;;;;;;;;;;;;;;5053385;28;19991;-53
2023/01/25 08:51:35;;;;;;;;;;;;;;;;;;5052138;28;19963;-53
2023/01/25 08:54:01;;;;;;;;;;;;;;;;;;5053555;28;19908;-57
2023/01/25 08:56:27;;;;;;;;;;;;;;;;;;5053142;28;19962;-56
2023/01/25 08:58:53;;;;;;;;;;;;;;;;;;5052730;28;19954;-57
2023/01/25 09:01:19;;;;;;;;;;;;;;;;;;5053481;28;19909;-57
2023/01/25 09:03:45;;;;;;;;;;;;;;;;;;5053386;28;19909;-57
2023/01/25 09:06:10;;;;;;;;;;;;;;;;;;5053291;28;19932;-54
2023/01/25 09:08:37;;;;;;;;;;;;;;;;;;5052959;28;19994;-56
2023/01/25 09:11:02;;;;;;;;;;;;;;;;;;5051972;28;19913;-55
2023/01/25 09:13:28;;;;;;;;;;;;;;;;;;5051831;28;19913;-56
2023/01/25 09:15:54;;;;;;;;;;;;;;;;;;5051865;28;19913;-57
2023/01/25 09:18:20;;;;;;;;;;;;;;;;;;5052829;28;19909;-53
2023/01/25 09:26:28;;;;;;;;;;;;;;;;;;5053080;28;19988;-56
2023/01/25 09:28:54;;;;;;;;;;;;;;;;;;5052777;28;19912;-56
2023/01/25 09:31:20;;;;;;;;;;;;;;;;;;5052725;28;20011;-54
2023/01/25 09:33:46;;;;;;;;;;;;;;;;;;5052768;28;19913;-53
2023/01/25 09:36:12;;;;;;;;;;;;;;;;;;5052640;28;19913;-53
2023/01/25 09:38:38;;;;;;;;;;;;;;;;;;5052532;28;19913;-56
2023/01/25 09:41:03;;;;;;;;;;;;;;;;;;5052573;28;19913;-58
2023/01/25 09:43:29;;;;;;;;;;;;;;;;;;5052571;28;19916;-56
2023/01/25 09:45:55;;;;;;;;;;;;;;;;;;5052611;28;19909;-53
2023/01/25 09:48:21;;;;;;;;;;;;;;;;;;5052213;28;19917;-56
2023/01/25 09:50:47;;;;;;;;;;;;;;;;;;5052425;28;19912;-54
2023/01/25 09:53:13;;;;;;;;;;;;;;;;;;5051100;28;20417;-53
2023/01/25 09:55:39;;;;;;;;;;;;;;;;;;5052479;28;19913;-54
2023/01/25 09:58:05;;;;;;;;;;;;;;;;;;5052330;28;19916;-54
2023/01/25 10:00:31;;;;;;;;;;;;;;;;;;5052283;28;19932;-56
2023/01/25 10:02:57;;;;;;;;;;;;;;;;;;5052469;28;19908;-54
2023/01/25 10:05:22;;;;;;;;;;;;;;;;;;5052257;28;19916;-56
2023/01/25 10:07:48;;;;;;;;;;;;;;;;;;5052056;28;19913;-56
2023/01/25 10:10:14;;;;;;;;;;;;;;;;;;5051964;28;20350;-56
2023/01/25 10:12:40;;;;;;;;;;;;;;;;;;5052192;28;19935;-57
2023/01/25 10:15:06;;;;;;;;;;;;;;;;;;5052148;28;19915;-55
2023/01/25 10:17:32;;;;;;;;;;;;;;;;;;5050745;28;19908;-54
2023/01/25 10:19:58;;;;;;;;;;;;;;;;;;5052002;28;19917;-56
2023/01/25 10:22:24;;;;;;;;;;;;;;;;;;5052097;28;19925;-54
2023/01/25 10:24:50;;;;;;;;;;;;;;;;;;5052098;28;19944;-55
2023/01/25 10:27:16;;;;;;;;;;;;;;;;;;5052160;28;20000;-57
2023/01/25 10:29:42;;;;;;;;;;;;;;;;;;5051807;28;19909;-54
2023/01/25 10:32:07;;;;;;;;;;;;;;;;;;5050586;28;19920;-57
2023/01/25 10:34:33;;;;;;;;;;;;;;;;;;5051941;28;19916;-57
2023/01/25 10:36:59;;;;;;;;;;;;;;;;;;5051808;28;19995;-57
2023/01/25 10:39:25;;;;;;;;;;;;;;;;;;5052005;28;19908;-56
2023/01/25 10:41:54;;;;;;;;;;;;;;;;;;5051190;28;21639;-56
2023/01/25 10:44:20;;;;;;;;;;;;;;;;;;5051748;28;19908;-56
2023/01/25 10:46:46;;;;;;;;;;;;;;;;;;5051952;28;20007;-56
2023/01/25 10:49:12;;;;;;;;;;;;;;;;;;5051983;28;19951;-56
2023/01/25 10:51:38;;;;;;;;;;;;;;;;;;5050662;28;19996;-54
2023/01/25 11:16:04;;;;;;;;;;;;;;;;;;5052480;28;19919;-52
2023/01/25 11:18:32;;;;;;;;;;;;;;;;;;5051178;28;19939;-56
2023/01/25 11:56:39;;;;;;;;;;;;;;;;;;5121788;27;20331;-55
2023/01/25 11:59:05;;;;;;;;;;;;;;;;;;5105296;28;19957;-53
2023/01/25 12:01:30;;;;;;;;;;;;;;;;;;5106708;28;19960;-56
2023/01/25 12:03:56;;;;;;;;;;;;;;;;;;5090659;28;20372;-54
2023/01/25 12:06:22;;;;;;;;;;;;;;;;;;5088067;28;19912;-55
2023/01/25 12:08:48;;;;;;;;;;;;;;;;;;5103327;28;20355;-51
2023/01/25 12:13:52;;;;;;;;;;;;;;;;;;5191801;27;20306;-54
2023/01/25 12:16:18;;;;;;;;;;;;;;;;;;5188320;27;20018;-53
2023/01/25 12:18:44;;;;;;;;;;;;;;;;;;5191974;27;19957;-49
2023/01/25 12:21:10;;;;;;;;;;;;;;;;;;5164537;27;19915;-55
2023/01/25 12:23:36;;;;;;;;;;;;;;;;;;5112431;27;20388;-55
2023/01/25 12:26:02;;;;;;;;;;;;;;;;;;5074723;28;19983;-54
2023/01/25 12:28:29;;;;;;;;;;;;;;;;;;5011786;28;20009;-52
2023/01/25 12:30:55;;;;;;;;;;;;;;;;;;4951841;28;19918;-51
2023/01/25 12:33:21;;;;;;;;;;;;;;;;;;4903263;29;20395;-54
2023/01/25 12:37:50;;;;;;;;;;;;;;;;;;5183063;27;20279;-56
2023/01/25 12:40:15;;;;;;;;;;;;;;;;;;5053613;27;2378110;-52
2023/01/25 12:42:41;;;;;;;;;;;;;;;;;;5128559;27;19908;-54
2023/01/25 12:45:09;;;;;;;;;;;;;;;;;;5130125;27;19908;-56
2023/01/25 12:47:36;;;;;;;;;;;;;;;;;;5129710;27;19937;-54
2023/01/25 12:50:03;;;;;;;;;;;;;;;;;;5127824;27;20376;-55
2023/01/25 12:52:29;;;;;;;;;;;;;;;;;;5110021;28;19955;-55
2023/01/25 12:54:55;;;;;;;;;;;;;;;;;;5122734;28;19912;-56
2023/01/25 12:57:24;;;;;;;;;;;;;;;;;;5128553;27;19923;-52
2023/01/25 12:59:50;;;;;;;;;;;;;;;;;;5128255;27;19938;-54
2023/01/25 13:02:16;;;;;;;;;;;;;;;;;;5109813;28;20322;-51
2023/01/25 13:04:43;;;;;;;;;;;;;;;;;;5113301;28;19915;-52
2023/01/25 13:07:09;;;;;;;;;;;;;;;;;;5128952;27;19907;-54
2023/01/25 13:09:35;;;;;;;;;;;;;;;;;;5129300;28;19908;-55
2023/01/25 13:12:01;;;;;;;;;;;;;;;;;;5127697;27;19919;-52
2023/01/25 13:14:28;;;;;;;;;;;;;;;;;;5129608;27;19907;-55
2023/01/25 13:16:54;;;;;;;;;;;;;;;;;;5110564;27;19939;-54
2023/01/25 13:19:23;;;;;;;;;;;;;;;;;;5107884;28;20020;-55
2023/01/25 13:21:51;;;;;;;;;;;;;;;;;;5127865;28;19911;-55
2023/01/25 13:24:18;;;;;;;;;;;;;;;;;;5112167;27;20269;-53
2023/01/25 13:26:44;;;;;;;;;;;;;;;;;;5115396;28;19912;-54
2023/01/25 13:29:09;;;;;;;;;;;;;;;;;;5114209;27;19912;-57
2023/01/25 13:31:35;;;;;;;;;;;;;;;;;;5110491;28;19920;-56
2023/01/25 13:34:02;;;;;;;;;;;;;;;;;;5109315;28;19912;-56
2023/01/25 13:36:28;;;;;;;;;;;;;;;;;;5111601;28;19916;-53
2023/01/25 13:38:54;;;;;;;;;;;;;;;;;;5125135;27;19995;-54
2023/01/25 13:41:20;;;;;;;;;;;;;;;;;;5094502;28;19966;-57
2023/01/25 13:43:46;;;;;;;;;;;;;;;;;;5099994;28;19912;-52
2023/01/25 13:46:13;;;;;;;;;;;;;;;;;;5108403;28;20419;-52
2023/01/25 13:48:39;;;;;;;;;;;;;;;;;;5096707;28;19908;-55
2023/01/25 13:51:06;;;;;;;;;;;;;;;;;;5083029;28;19919;-56
2023/01/25 13:53:34;;;;;;;;;;;;;;;;;;5082514;28;20369;-55
2023/01/25 13:55:59;;;;;;;;;;;;;;;;;;5074424;28;19913;-56
2023/01/25 13:58:25;;;;;;;;;;;;;;;;;;5074734;28;20286;-57
2023/01/25 14:00:51;;;;;;;;;;;;;;;;;;5073545;28;19912;-57
2023/01/25 14:03:17;;;;;;;;;;;;;;;;;;5081104;28;19912;-56
2023/01/25 14:05:43;;;;;;;;;;;;;;;;;;5094310;28;20349;-55
2023/01/25 14:08:10;;;;;;;;;;;;;;;;;;5090469;28;19955;-57
2023/01/25 14:10:35;;;;;;;;;;;;;;;;;;5086057;28;20304;-56
2023/01/25 14:13:01;;;;;;;;;;;;;;;;;;5077700;28;19913;-56
2023/01/25 14:15:27;;;;;;;;;;;;;;;;;;5094483;28;19914;-56
2023/01/25 14:17:53;;;;;;;;;;;;;;;;;;5089085;28;20300;-56
2023/01/25 14:20:19;;;;;;;;;;;;;;;;;;5078524;28;19916;-57
2023/01/25 14:22:45;;;;;;;;;;;;;;;;;;5092718;28;20333;-55
2023/01/25 14:25:11;;;;;;;;;;;;;;;;;;5094138;28;19908;-57
2023/01/25 14:27:37;;;;;;;;;;;;;;;;;;5091358;28;19912;-56
2023/01/25 14:30:03;;;;;;;;;;;;;;;;;;5075824;28;19913;-56
2023/01/25 14:32:29;;;;;;;;;;;;;;;;;;5089069;28;19912;-53
2023/01/25 14:34:55;;;;;;;;;;;;;;;;;;5076990;28;19912;-56
2023/01/25 14:37:21;;;;;;;;;;;;;;;;;;5090658;28;19923;-55
2023/01/25 14:39:47;;;;;;;;;;;;;;;;;;5098364;27;19971;-53
2023/01/25 14:42:13;;;;;;;;;;;;;;;;;;5123958;27;19915;-53
2023/01/25 14:44:39;;;;;;;;;;;;;;;;;;5119826;27;19915;-56
2023/01/25 14:47:05;;;;;;;;;;;;;;;;;;5117454;27;19912;-53
2023/01/25 14:49:31;;;;;;;;;;;;;;;;;;5119048;27;19919;-59
2023/01/25 14:51:57;;;;;;;;;;;;;;;;;;5120368;27;19911;-56
2023/01/25 14:54:23;;;;;;;;;;;;;;;;;;5126999;27;19912;-56
2023/01/25 14:56:49;;;;;;;;;;;;;;;;;;5126423;27;19969;-58
2023/01/25 14:59:15;;;;;;;;;;;;;;;;;;5124339;27;19907;-57
2023/01/25 15:01:41;;;;;;;;;;;;;;;;;;5114096;28;20388;-53
2023/01/25 15:04:07;;;;;;;;;;;;;;;;;;5117764;27;19908;-57
2023/01/25 15:06:33;;;;;;;;;;;;;;;;;;5128454;27;20364;-56
2023/01/25 15:08:59;;;;;;;;;;;;;;;;;;5118409;27;19911;-57
2023/01/25 15:11:36;;;;;;;;;;;;;;;;;;5106082;28;19912;-56
2023/01/25 15:14:04;;;;;;;;;;;;;;;;;;5113690;28;19907;-56
2023/01/25 15:16:30;;;;;;;;;;;;;;;;;;5113614;28;20368;-61
2023/01/25 15:18:57;;;;;;;;;;;;;;;;;;5128896;27;19963;-57
2023/01/25 15:21:23;;;;;;;;;;;;;;;;;;5133656;27;20077;-57
2023/01/25 15:23:49;;;;;;;;;;;;;;;;;;5134146;27;20363;-58
2023/01/25 15:26:15;;;;;;;;;;;;;;;;;;5115492;27;20380;-57
2023/01/25 15:28:41;;;;;;;;;;;;;;;;;;5134095;27;19917;-55
2023/01/25 15:31:07;;;;;;;;;;;;;;;;;;5115752;27;19943;-56
2023/01/25 15:33:33;;;;;;;;;;;;;;;;;;5134169;27;20004;-56
2023/01/25 15:35:59;;;;;;;;;;;;;;;;;;5115375;27;19921;-57
2023/01/25 15:38:25;;;;;;;;;;;;;;;;;;5133973;27;19908;-56
2023/01/25 15:40:51;;;;;;;;;;;;;;;;;;5134127;27;19919;-54
2023/01/25 15:43:17;;;;;;;;;;;;;;;;;;5115462;27;20330;-56
2023/01/25 15:45:43;;;;;;;;;;;;;;;;;;5133717;27;19911;-55
2023/01/25 15:48:08;;;;;;;;;;;;;;;;;;5133549;27;19914;-57
2023/01/25 15:50:34;;;;;;;;;;;;;;;;;;5133587;27;19907;-54
2023/01/25 15:53:00;;;;;;;;;;;;;;;;;;5115075;27;19908;-56
2023/01/25 15:55:26;;;;;;;;;;;;;;;;;;5133427;27;19930;-56
2023/01/25 15:57:52;;;;;;;;;;;;;;;;;;5133403;27;19915;-54
2023/01/25 16:00:18;;;;;;;;;;;;;;;;;;5133513;27;19998;-57
2023/01/25 16:02:44;;;;;;;;;;;;;;;;;;5133419;27;20291;-57
2023/01/25 16:05:10;;;;;;;;;;;;;;;;;;5114955;27;19914;-56
2023/01/25 16:07:36;;;;;;;;;;;;;;;;;;5133719;27;19907;-56
2023/01/25 16:10:02;;;;;;;;;;;;;;;;;;5133525;27;19907;-57
2023/01/25 16:12:31;;;;;;;;;;;;;;;;;;5133259;27;19951;-56
2023/01/25 16:14:57;;;;;;;;;;;;;;;;;;5133677;27;19907;-57
2023/01/25 16:17:23;;;;;;;;;;;;;;;;;;5133140;27;20303;-56
2023/01/25 16:19:48;;;;;;;;;;;;;;;;;;5133229;27;19914;-56
2023/01/25 16:22:14;;;;;;;;;;;;;;;;;;5133244;27;19907;-56
2023/01/25 16:24:40;;;;;;;;;;;;;;;;;;5133243;27;19907;-52
2023/01/25 16:27:06;;;;;;;;;;;;;;;;;;5133141;27;20287;-57
2023/01/25 16:29:32;;;;;;;;;;;;;;;;;;5133173;27;19933;-53
2023/01/25 16:31:58;;;;;;;;;;;;;;;;;;5115025;27;19914;-56
2023/01/25 16:34:24;;;;;;;;;;;;;;;;;;5133068;27;19914;-53
2023/01/25 16:36:50;;;;;;;;;;;;;;;;;;5133200;27;19912;-56
2023/01/25 16:39:18;;;;;;;;;;;;;;;;;;5114643;28;19916;-57
2023/01/25 16:41:44;;;;;;;;;;;;;;;;;;5132968;28;19907;-57
2023/01/25 16:44:10;;;;;;;;;;;;;;;;;;5114433;28;19930;-57
2023/01/25 16:46:36;;;;;;;;;;;;;;;;;;5133094;28;20331;-54
2023/01/25 16:49:03;;;;;;;;;;;;;;;;;;5133198;27;20383;-54
2023/01/25 16:51:29;;;;;;;;;;;;;;;;;;5114498;28;19907;-56
2023/01/25 16:53:55;;;;;;;;;;;;;;;;;;5132983;28;19926;-56
2023/01/25 16:56:21;;;;;;;;;;;;;;;;;;5132662;28;19912;-56
2023/01/25 16:58:47;;;;;;;;;;;;;;;;;;5132721;27;20060;-56
2023/01/25 17:01:13;;;;;;;;;;;;;;;;;;5132839;28;20056;-53
2023/01/25 17:03:39;;;;;;;;;;;;;;;;;;5114317;28;19915;-53
2023/01/25 17:06:05;;;;;;;;;;;;;;;;;;5114222;28;19933;-55
2023/01/25 17:08:31;;;;;;;;;;;;;;;;;;5133080;27;19915;-56
2023/01/25 17:10:57;;;;;;;;;;;;;;;;;;5132738;28;19907;-57
2023/01/25 17:13:23;;;;;;;;;;;;;;;;;;5132485;27;19912;-56
2023/01/25 17:15:49;;;;;;;;;;;;;;;;;;5114071;28;19973;-56
2023/01/25 17:18:15;;;;;;;;;;;;;;;;;;5132484;27;19907;-55
2023/01/25 17:20:42;;;;;;;;;;;;;;;;;;5132855;28;19907;-56
2023/01/25 17:23:08;;;;;;;;;;;;;;;;;;5133916;27;20452;-57
2023/01/25 17:25:36;;;;;;;;;;;;;;;;;;5136496;27;19908;-57
2023/01/25 17:28:02;;;;;;;;;;;;;;;;;;5136463;27;20054;-55
2023/01/25 17:30:28;;;;;;;;;;;;;;;;;;5136706;27;20065;-56
2023/01/25 17:32:54;;;;;;;;;;;;;;;;;;5136472;27;20410;-56
2023/01/25 17:35:20;;;;;;;;;;;;;;;;;;5117810;27;19968;-57
2023/01/25 17:37:46;;;;;;;;;;;;;;;;;;5136189;27;19911;-56
2023/01/25 17:40:12;;;;;;;;;;;;;;;;;;5136107;27;20420;-53
2023/01/25 17:42:38;;;;;;;;;;;;;;;;;;5136024;27;20009;-55
2023/01/25 17:45:04;;;;;;;;;;;;;;;;;;5135745;27;20000;-56
2023/01/25 17:47:30;;;;;;;;;;;;;;;;;;5135533;27;19907;-55
2023/01/25 17:49:56;;;;;;;;;;;;;;;;;;5136193;27;19933;-53
2023/01/25 17:52:22;;;;;;;;;;;;;;;;;;5136172;27;19907;-56